createdAt,value
2018-10-17T00:01:30.985Z,41.40
2018-10-17T00:03:57.810Z,41.10
2018-10-17T00:06:24.642Z,41.10
2018-10-17T00:08:51.510Z,41.10
2018-10-17T00:11:18.344Z,41.10
2018-10-17T00:13:45.166Z,41.20
2018-10-17T00:16:12.010Z,41.20
2018-10-17T00:18:38.890Z,41.10
2018-10-17T00:21:05.731Z,41.10
2018-10-17T00:23:32.563Z,41.10
2018-10-17T00:25:59.403Z,41.10
2018-10-17T00:28:26.250Z,41.10
2018-10-17T00:30:53.097Z,41.10
2018-10-17T00:33:19.925Z,41.10
2018-10-17T00:35:46.739Z,41.10
2018-10-17T00:38:13.620Z,41.10
2018-10-17T00:40:40.452Z,41.10
2018-10-17T00:43:07.293Z,41.10
2018-10-17T00:45:34.123Z,41.10
2018-10-17T00:48:00.997Z,41.10
2018-10-17T00:50:27.828Z,41.10
2018-10-17T00:52:54.662Z,41.10
2018-10-17T00:55:21.687Z,41.10
2018-10-17T00:57:48.777Z,41.10
2018-10-17T01:00:15.633Z,41.10
2018-10-17T01:02:42.468Z,41.10
2018-10-17T01:05:09.318Z,41.00
2018-10-17T01:07:36.144Z,41.00
2018-10-17T01:10:02.989Z,41.00
2018-10-17T01:12:29.801Z,41.00
2018-10-17T01:14:56.668Z,41.00
2018-10-17T01:17:23.742Z,41.10
2018-10-17T01:19:50.564Z,41.10
2018-10-17T01:22:17.399Z,41.00
2018-10-17T01:24:44.244Z,41.00
2018-10-17T01:27:11.102Z,41.00
2018-10-17T01:29:37.936Z,41.00
2018-10-17T01:32:04.751Z,40.90
2018-10-17T01:34:31.596Z,40.90
2018-10-17T01:36:58.468Z,40.90
2018-10-17T01:39:25.310Z,40.90
2018-10-17T01:41:52.142Z,40.90
2018-10-17T01:44:18.974Z,40.90
2018-10-17T01:46:45.811Z,40.90
2018-10-17T01:49:12.669Z,40.90
2018-10-17T01:51:39.478Z,40.90
2018-10-17T01:54:06.319Z,40.90
2018-10-17T01:56:33.152Z,40.90
2018-10-17T01:59:00.097Z,40.90
2018-10-17T02:01:26.892Z,40.90
2018-10-17T02:03:53.730Z,40.90
2018-10-17T02:06:20.554Z,40.90
2018-10-17T02:08:47.417Z,40.90
2018-10-17T02:11:14.317Z,40.90
2018-10-17T02:13:41.107Z,40.90
2018-10-17T02:16:07.913Z,40.90
2018-10-17T02:18:34.822Z,40.90
2018-10-17T02:21:01.627Z,40.90
2018-10-17T02:23:28.459Z,40.90
2018-10-17T02:25:55.286Z,40.90
2018-10-17T02:28:22.171Z,40.90
2018-10-17T02:30:48.992Z,40.80
2018-10-17T02:33:15.839Z,40.80
2018-10-17T02:35:42.676Z,40.90
2018-10-17T02:38:09.530Z,40.80
2018-10-17T02:40:36.371Z,40.80
2018-10-17T02:43:03.258Z,40.90
2018-10-17T02:45:30.026Z,40.90
2018-10-17T02:47:56.923Z,40.80
2018-10-17T02:50:23.749Z,40.80
2018-10-17T02:52:50.582Z,40.90
2018-10-17T02:55:17.401Z,40.90
2018-10-17T02:57:44.291Z,40.80
2018-10-17T03:00:11.161Z,40.80
2018-10-17T03:02:37.963Z,40.80
2018-10-17T03:05:04.864Z,40.80
2018-10-17T03:07:31.663Z,40.80
2018-10-17T03:09:58.505Z,40.80
2018-10-17T03:12:25.345Z,40.70
2018-10-17T03:14:52.194Z,40.80
2018-10-17T03:17:19.289Z,40.80
2018-10-17T03:19:46.073Z,40.70
2018-10-17T03:22:12.886Z,40.70
2018-10-17T03:24:39.726Z,40.70
2018-10-17T03:27:06.636Z,40.70
2018-10-17T03:29:33.451Z,40.60
2018-10-17T03:32:00.279Z,40.60
2018-10-17T03:34:27.383Z,40.70
2018-10-17T03:36:54.331Z,40.70
2018-10-17T03:39:21.550Z,40.70
2018-10-17T03:41:48.356Z,40.70
2018-10-17T03:44:15.181Z,41.40
2018-10-17T03:46:42.037Z,40.60
2018-10-17T03:49:09.072Z,40.70
2018-10-17T03:51:35.838Z,40.70
2018-10-17T03:54:02.656Z,40.70
2018-10-17T03:56:29.494Z,40.80
2018-10-17T03:58:56.390Z,40.80
2018-10-17T04:01:23.226Z,40.70
2018-10-17T04:03:50.066Z,41.30
2018-10-17T04:06:16.894Z,40.70
2018-10-17T04:08:43.747Z,40.70
2018-10-17T04:11:10.635Z,40.70
2018-10-17T04:13:37.412Z,40.80
2018-10-17T04:16:04.255Z,40.70
2018-10-17T04:18:31.128Z,40.70
2018-10-17T04:20:57.964Z,40.60
2018-10-17T04:23:24.781Z,40.60
2018-10-17T04:25:51.624Z,40.60
2018-10-17T04:28:18.492Z,40.70
2018-10-17T04:30:45.320Z,40.70
2018-10-17T04:33:12.154Z,40.70
2018-10-17T04:35:38.998Z,40.90
2018-10-17T04:38:05.866Z,40.90
2018-10-17T04:40:32.703Z,41.20
2018-10-17T04:42:59.598Z,41.20
2018-10-17T04:45:26.391Z,41.40
2018-10-17T04:47:53.244Z,41.20
2018-10-17T04:50:20.153Z,41.20
2018-10-17T04:52:46.991Z,41.20
2018-10-17T04:55:13.872Z,41.20
2018-10-17T04:57:40.817Z,41.20
2018-10-17T05:00:07.665Z,41.20
2018-10-17T05:02:34.518Z,41.20
2018-10-17T05:05:01.370Z,41.10
2018-10-17T05:07:28.189Z,41.20
2018-10-17T05:09:55.006Z,41.10
2018-10-17T05:12:21.833Z,41.10
2018-10-17T05:14:48.665Z,41.10
2018-10-17T05:17:15.981Z,41.10
2018-10-17T05:19:42.980Z,41.10
2018-10-17T05:22:09.801Z,41.00
2018-10-17T05:24:36.642Z,41.10
2018-10-17T05:27:03.559Z,41.20
2018-10-17T05:29:30.412Z,41.20
2018-10-17T05:31:57.227Z,40.60
2018-10-17T05:34:24.056Z,40.90
2018-10-17T05:36:50.923Z,41.00
2018-10-17T05:39:17.719Z,40.80
2018-10-17T05:41:44.542Z,40.90
2018-10-17T05:44:11.386Z,41.00
2018-10-17T05:46:38.289Z,41.00
2018-10-17T05:49:05.134Z,40.90
2018-10-17T05:51:31.959Z,40.90
2018-10-17T05:53:58.805Z,40.80
2018-10-17T05:56:25.631Z,41.00
2018-10-17T05:58:52.615Z,41.00
2018-10-17T06:01:19.457Z,41.00
2018-10-17T06:03:46.272Z,40.90
2018-10-17T06:06:13.123Z,40.80
2018-10-17T06:08:39.982Z,40.90
2018-10-17T06:11:06.863Z,40.90
2018-10-17T06:13:33.646Z,40.80
2018-10-17T06:16:00.470Z,40.90
2018-10-17T06:18:27.354Z,40.70
2018-10-17T06:20:54.195Z,40.70
2018-10-17T06:23:21.034Z,40.70
2018-10-17T06:25:47.855Z,40.80
2018-10-17T06:28:14.815Z,40.80
2018-10-17T06:30:41.657Z,40.70
2018-10-17T06:33:08.406Z,40.70
2018-10-17T06:35:35.221Z,40.80
2018-10-17T06:38:02.095Z,40.70
2018-10-17T06:40:28.933Z,40.70
2018-10-17T06:42:55.819Z,40.70
2018-10-17T06:45:22.583Z,40.70
2018-10-17T06:47:49.463Z,40.60
2018-10-17T06:50:16.308Z,40.50
2018-10-17T06:52:43.278Z,40.60
2018-10-17T06:55:10.682Z,40.50
2018-10-17T06:57:37.669Z,40.50
2018-10-17T07:00:04.514Z,40.40
2018-10-17T07:02:31.350Z,40.50
2018-10-17T07:04:58.200Z,40.40
2018-10-17T07:07:25.020Z,40.40
2018-10-17T07:09:51.850Z,40.50
2018-10-17T07:12:18.682Z,40.50
2018-10-17T07:14:45.509Z,40.40
2018-10-17T07:17:13.341Z,40.40
2018-10-17T07:19:40.228Z,40.40
2018-10-17T07:22:07.061Z,40.40
2018-10-17T07:24:33.885Z,40.40
2018-10-17T07:27:00.794Z,40.40
2018-10-17T07:29:27.756Z,40.50
2018-10-17T07:31:54.460Z,40.40
2018-10-17T07:34:21.368Z,40.40
2018-10-17T07:36:48.133Z,40.40
2018-10-17T07:39:14.976Z,40.40
2018-10-17T07:41:41.820Z,40.40
2018-10-17T07:44:08.695Z,40.40
2018-10-17T07:46:35.520Z,40.50
2018-10-17T07:49:02.341Z,40.50
2018-10-17T07:51:29.178Z,40.60
2018-10-17T07:53:56.054Z,40.70
2018-10-17T07:56:22.841Z,40.60
2018-10-17T07:58:49.747Z,40.60
2018-10-17T08:01:16.588Z,40.70
2018-10-17T08:03:43.423Z,40.60
2018-10-17T08:06:10.320Z,40.70
2018-10-17T08:08:37.122Z,40.80
2018-10-17T08:11:03.947Z,40.70
2018-10-17T08:13:30.800Z,40.70
2018-10-17T08:15:57.611Z,40.80
2018-10-17T08:18:24.493Z,40.80
2018-10-17T08:20:51.326Z,40.90
2018-10-17T08:23:18.167Z,40.90
2018-10-17T08:25:45.003Z,40.90
2018-10-17T08:28:11.874Z,41.00
2018-10-17T08:30:38.699Z,41.00
2018-10-17T08:33:05.536Z,40.90
2018-10-17T08:35:32.446Z,41.00
2018-10-17T08:37:59.269Z,41.00
2018-10-17T08:40:26.061Z,41.00
2018-10-17T08:42:52.898Z,41.00
2018-10-17T08:45:19.786Z,41.00
2018-10-17T08:47:46.607Z,41.00
2018-10-17T08:50:14.491Z,41.00
2018-10-17T08:52:41.311Z,41.00
2018-10-17T08:55:08.136Z,41.00
2018-10-17T08:57:35.029Z,41.00
2018-10-17T09:00:01.842Z,41.00
2018-10-17T09:02:28.662Z,41.10
2018-10-17T09:04:55.483Z,41.10
2018-10-17T09:07:22.369Z,41.00
2018-10-17T09:09:49.200Z,41.10
2018-10-17T09:12:16.101Z,41.30
2018-10-17T09:14:42.874Z,41.40
2018-10-17T09:17:09.753Z,41.40
2018-10-17T09:19:36.726Z,41.50
2018-10-17T09:22:03.717Z,41.50
2018-10-17T09:24:30.221Z,41.50
2018-10-17T09:26:57.114Z,41.40
2018-10-17T09:32:14.668Z,41.50
2018-10-17T09:34:41.505Z,41.50
2018-10-17T09:37:08.442Z,41.50
2018-10-17T09:39:35.266Z,41.60
2018-10-17T09:42:02.212Z,41.60
2018-10-17T09:44:28.962Z,41.60
2018-10-17T09:46:55.822Z,41.60
2018-10-17T09:49:22.661Z,41.50
2018-10-17T09:51:49.482Z,41.50
2018-10-17T09:54:16.394Z,41.60
2018-10-17T09:56:43.201Z,41.60
2018-10-17T09:59:10.030Z,41.60
2018-10-17T10:01:36.850Z,41.60
2018-10-17T10:04:03.788Z,41.60
2018-10-17T10:06:30.518Z,41.60
2018-10-17T10:08:57.400Z,41.60
2018-10-17T10:11:24.229Z,41.60
2018-10-17T10:13:51.054Z,41.60
2018-10-17T10:16:17.932Z,41.60
2018-10-17T10:18:44.790Z,41.60
2018-10-17T10:21:11.613Z,41.60
2018-10-17T10:23:38.567Z,41.70
2018-10-17T10:26:05.262Z,41.70
2018-10-17T10:28:32.226Z,41.30
2018-10-17T10:30:58.983Z,40.90
2018-10-17T10:33:25.819Z,40.70
2018-10-17T10:35:52.654Z,40.70
2018-10-17T10:38:19.538Z,40.40
2018-10-17T10:40:46.446Z,40.70
2018-10-17T10:43:13.197Z,40.60
2018-10-17T10:45:40.133Z,40.40
2018-10-17T10:48:06.972Z,40.40
2018-10-17T10:50:33.731Z,40.40
2018-10-17T10:53:00.574Z,40.40
2018-10-17T10:55:27.383Z,40.50
2018-10-17T10:57:54.335Z,41.10
2018-10-17T11:00:21.114Z,40.50
2018-10-17T11:02:47.920Z,40.40
2018-10-17T11:05:15.461Z,40.50
2018-10-17T11:07:42.251Z,40.40
2018-10-17T11:10:09.076Z,40.40
2018-10-17T11:12:35.913Z,40.20
2018-10-17T11:15:02.775Z,40.40
2018-10-17T11:17:29.627Z,40.20
2018-10-17T11:19:56.462Z,40.20
2018-10-17T11:22:23.286Z,40.10
2018-10-17T11:24:50.115Z,40.20
2018-10-17T11:27:17.056Z,39.90
2018-10-17T11:29:43.822Z,39.60
2018-10-17T11:32:10.648Z,39.80
2018-10-17T11:34:37.466Z,39.90
2018-10-17T11:37:04.380Z,39.70
2018-10-17T11:39:31.205Z,39.90
2018-10-17T11:41:58.036Z,40.10
2018-10-17T11:44:24.871Z,39.90
2018-10-17T11:46:51.687Z,39.70
2018-10-17T11:49:18.519Z,39.80
2018-10-17T11:51:45.338Z,39.70
2018-10-17T11:54:12.169Z,39.50
2018-10-17T11:56:38.990Z,39.50
2018-10-17T11:59:05.901Z,39.40
2018-10-17T12:01:32.666Z,38.70
2018-10-17T12:03:59.733Z,39.40
2018-10-17T12:06:26.559Z,39.30
2018-10-17T12:08:53.387Z,39.70
2018-10-17T12:11:20.233Z,40.70
2018-10-17T12:13:47.041Z,41.10
2018-10-17T12:16:13.874Z,41.00
2018-10-17T12:18:40.906Z,41.50
2018-10-17T12:21:07.826Z,41.70
2018-10-17T12:23:34.675Z,41.90
2018-10-17T12:26:01.501Z,41.60
2018-10-17T12:28:28.597Z,41.40
2018-10-17T12:30:55.397Z,41.40
2018-10-17T12:33:22.267Z,41.10
2018-10-17T12:35:49.097Z,40.90
2018-10-17T12:38:16.064Z,40.60
2018-10-17T12:40:42.964Z,40.10
2018-10-17T12:43:09.759Z,40.40
2018-10-17T12:45:36.631Z,40.30
2018-10-17T12:48:03.638Z,40.50
2018-10-17T12:50:30.473Z,40.50
2018-10-17T12:52:57.448Z,39.90
2018-10-17T12:55:24.200Z,40.10
2018-10-17T12:57:51.240Z,40.30
2018-10-17T13:00:18.150Z,40.10
2018-10-17T13:02:44.993Z,40.30
2018-10-17T13:05:11.988Z,39.40
2018-10-17T13:07:38.805Z,40.20
2018-10-17T13:10:05.618Z,40.10
2018-10-17T13:12:32.596Z,40.10
2018-10-17T13:14:59.501Z,40.20
2018-10-17T13:17:27.632Z,40.10
2018-10-17T13:19:54.877Z,39.70
2018-10-17T13:22:21.685Z,40.00
2018-10-17T13:24:48.653Z,39.80
2018-10-17T13:27:15.571Z,39.60
2018-10-17T13:29:42.413Z,40.00
2018-10-17T13:32:09.249Z,39.80
2018-10-17T13:34:36.115Z,39.90
2018-10-17T13:37:02.957Z,40.10
2018-10-17T13:39:29.769Z,40.10
2018-10-17T13:41:56.628Z,39.90
2018-10-17T13:44:23.473Z,39.80
2018-10-17T13:46:50.310Z,39.90
2018-10-17T13:49:17.264Z,39.40
2018-10-17T13:51:44.047Z,39.70
2018-10-17T13:54:10.890Z,40.00
2018-10-17T13:56:38.142Z,39.60
2018-10-17T13:59:05.010Z,39.20
2018-10-17T14:01:32.079Z,39.40
2018-10-17T14:03:58.912Z,39.20
2018-10-17T14:06:25.969Z,39.60
2018-10-17T14:08:52.983Z,39.40
2018-10-17T14:11:19.782Z,39.70
2018-10-17T14:13:46.699Z,40.20
2018-10-17T14:16:13.527Z,39.60
2018-10-17T14:18:40.516Z,39.40
2018-10-17T14:21:07.371Z,39.20
2018-10-17T14:23:34.237Z,39.70
2018-10-17T14:26:01.011Z,39.00
2018-10-17T14:28:27.870Z,39.70
2018-10-17T14:30:54.698Z,39.70
2018-10-17T14:33:21.530Z,39.90
2018-10-17T14:35:48.402Z,39.80
2018-10-17T14:38:15.243Z,39.70
2018-10-17T14:40:42.087Z,39.50
2018-10-17T14:43:08.981Z,39.50
2018-10-17T14:45:35.806Z,39.20
2018-10-17T14:48:02.825Z,39.00
2018-10-17T14:50:29.663Z,39.40
2018-10-17T14:52:56.588Z,38.80
2018-10-17T14:55:23.391Z,38.80
2018-10-17T14:57:50.403Z,39.20
2018-10-17T15:00:17.823Z,39.20
2018-10-17T15:02:44.660Z,38.80
2018-10-17T15:05:11.590Z,38.80
2018-10-17T15:07:38.414Z,38.70
2018-10-17T15:10:06.218Z,39.30
2018-10-17T15:12:33.125Z,39.70
2018-10-17T15:15:00.115Z,39.90
2018-10-17T15:17:27.693Z,39.90
2018-10-17T15:19:54.510Z,39.80
2018-10-17T15:22:21.327Z,39.80
2018-10-17T15:24:48.227Z,39.70
2018-10-17T15:27:15.261Z,39.90
2018-10-17T15:29:42.064Z,40.10
2018-10-17T15:32:08.893Z,40.10
2018-10-17T15:34:35.727Z,40.20
2018-10-17T15:37:02.830Z,40.30
2018-10-17T15:39:29.586Z,40.50
2018-10-17T15:41:56.472Z,40.50
2018-10-17T15:44:23.271Z,40.50
2018-10-17T15:46:50.110Z,40.60
2018-10-17T15:49:16.938Z,40.70
2018-10-17T15:51:43.782Z,41.40
2018-10-17T15:54:10.688Z,40.80
2018-10-17T15:56:37.445Z,41.00
2018-10-17T15:59:04.276Z,41.00
2018-10-17T16:01:31.109Z,41.00
2018-10-17T16:03:57.942Z,41.10
2018-10-17T16:06:24.774Z,41.10
2018-10-17T16:08:51.707Z,41.10
2018-10-17T16:11:18.531Z,41.20
2018-10-17T16:13:45.369Z,41.20
2018-10-17T16:16:12.184Z,41.30
2018-10-17T16:18:39.088Z,41.30
2018-10-17T16:21:05.930Z,41.40
2018-10-17T16:23:32.757Z,41.50
2018-10-17T16:25:59.603Z,41.50
2018-10-17T16:28:26.458Z,41.50
2018-10-17T16:30:53.367Z,41.50
2018-10-17T16:33:20.205Z,41.50
2018-10-17T16:35:47.036Z,41.50
2018-10-17T16:38:14.110Z,41.60
2018-10-17T16:40:40.910Z,41.60
2018-10-17T16:43:07.698Z,41.60
2018-10-17T16:45:34.536Z,41.60
2018-10-17T16:48:01.424Z,41.50
2018-10-17T16:50:28.296Z,41.70
2018-10-17T16:52:55.086Z,41.60
2018-10-17T16:55:21.921Z,41.70
2018-10-17T16:57:48.775Z,41.80
2018-10-17T17:00:15.700Z,41.70
2018-10-17T17:02:42.495Z,41.60
2018-10-17T17:05:09.321Z,41.60
2018-10-17T17:07:36.347Z,41.60
2018-10-17T17:10:03.197Z,41.50
2018-10-17T17:12:30.048Z,41.50
2018-10-17T17:14:56.944Z,41.60
2018-10-17T17:17:24.467Z,41.60
2018-10-17T17:19:51.379Z,41.60
2018-10-17T17:22:18.225Z,41.60
2018-10-17T17:24:45.089Z,41.70
2018-10-17T17:27:12.160Z,41.60
2018-10-17T17:29:38.975Z,41.70
2018-10-17T17:32:05.829Z,41.70
2018-10-17T17:34:32.656Z,41.70
2018-10-17T17:36:59.509Z,41.80
2018-10-17T17:39:26.350Z,41.70
2018-10-17T17:41:53.182Z,41.80
2018-10-17T17:44:20.020Z,41.80
2018-10-17T17:46:46.869Z,41.90
2018-10-17T17:49:13.681Z,41.80
2018-10-17T17:51:40.539Z,41.90
2018-10-17T17:54:07.386Z,42.00
2018-10-17T17:56:34.220Z,41.90
2018-10-17T17:59:01.050Z,41.90
2018-10-17T18:01:27.891Z,41.90
2018-10-17T18:03:54.772Z,41.90
2018-10-17T18:06:21.659Z,41.90
2018-10-17T18:08:48.672Z,41.70
2018-10-17T18:11:15.504Z,41.80
2018-10-17T18:13:42.342Z,42.50
2018-10-17T18:16:09.226Z,41.90
2018-10-17T18:18:36.026Z,41.90
2018-10-17T18:21:02.873Z,41.90
2018-10-17T18:23:29.703Z,41.90
2018-10-17T18:25:56.539Z,41.90
2018-10-17T18:28:23.439Z,41.90
2018-10-17T18:30:51.098Z,42.20
2018-10-17T18:33:17.899Z,42.30
2018-10-17T18:35:44.733Z,42.40
2018-10-17T18:38:11.603Z,42.20
2018-10-17T18:40:38.471Z,42.30
2018-10-17T18:43:05.266Z,42.20
2018-10-17T18:45:32.169Z,42.60
2018-10-17T18:47:59.055Z,42.50
2018-10-17T18:50:26.127Z,42.40
2018-10-17T18:52:53.052Z,42.60
2018-10-17T18:55:20.032Z,42.50
2018-10-17T18:57:46.969Z,42.80
2018-10-17T19:00:13.839Z,42.70
2018-10-17T19:02:40.695Z,42.60
2018-10-17T19:05:07.562Z,42.80
2018-10-17T19:07:34.583Z,42.80
2018-10-17T19:10:01.414Z,43.00
2018-10-17T19:12:28.240Z,42.90
2018-10-17T19:14:55.177Z,43.10
2018-10-17T19:17:22.612Z,43.20
2018-10-17T19:19:49.554Z,43.10
2018-10-17T19:22:16.402Z,43.10
2018-10-17T19:24:43.300Z,43.00
2018-10-17T19:27:10.197Z,43.10
2018-10-17T19:29:36.947Z,43.10
2018-10-17T19:32:03.771Z,42.90
2018-10-17T19:34:30.732Z,43.00
2018-10-17T19:36:57.697Z,43.00
2018-10-17T19:39:24.556Z,43.00
2018-10-17T19:41:51.660Z,43.00
2018-10-17T19:44:18.439Z,43.00
2018-10-17T19:46:45.273Z,42.80
2018-10-17T19:49:12.292Z,42.80
2018-10-17T19:51:39.178Z,42.90
2018-10-17T19:54:06.027Z,42.90
2018-10-17T19:56:33.101Z,42.90
2018-10-17T19:58:59.937Z,42.90
2018-10-17T20:01:26.763Z,43.00
2018-10-17T20:03:53.613Z,43.10
2018-10-17T20:06:20.449Z,42.90
2018-10-17T20:08:47.427Z,42.90
2018-10-17T20:11:14.254Z,42.80
2018-10-17T20:13:41.085Z,42.70
2018-10-17T20:16:07.921Z,42.70
2018-10-17T20:18:34.802Z,42.60
2018-10-17T20:21:01.703Z,42.90
2018-10-17T20:23:28.482Z,42.80
2018-10-17T20:25:55.335Z,42.80
2018-10-17T20:28:22.237Z,42.70
2018-10-17T20:30:49.890Z,42.70
2018-10-17T20:33:16.776Z,42.80
2018-10-17T20:35:43.540Z,42.80
2018-10-17T20:38:10.586Z,42.80
2018-10-17T20:40:37.391Z,43.00
2018-10-17T20:43:04.214Z,43.00
2018-10-17T20:45:31.048Z,42.90
2018-10-17T20:47:57.948Z,43.00
2018-10-17T20:50:24.768Z,43.10
2018-10-17T20:52:51.596Z,43.10
2018-10-17T20:55:18.414Z,43.20
2018-10-17T20:57:45.314Z,43.10
2018-10-17T21:00:12.139Z,43.00
2018-10-17T21:02:38.995Z,43.20
2018-10-17T21:05:05.853Z,43.20
2018-10-17T21:07:32.694Z,43.20
2018-10-17T21:09:59.516Z,43.10
2018-10-17T21:12:26.350Z,43.20
2018-10-17T21:14:53.178Z,43.10
2018-10-17T21:17:20.334Z,43.10
2018-10-17T21:19:47.168Z,43.20
2018-10-17T21:22:13.994Z,44.00
2018-10-17T21:24:40.817Z,43.10
2018-10-17T21:27:07.831Z,43.10
2018-10-17T21:29:34.657Z,43.10
2018-10-17T21:32:01.531Z,43.20
2018-10-17T21:34:28.339Z,43.10
2018-10-17T21:36:55.202Z,43.10
2018-10-17T21:39:22.038Z,43.20
2018-10-17T21:41:48.859Z,43.20
2018-10-17T21:44:15.808Z,43.30
2018-10-17T21:46:42.597Z,43.60
2018-10-17T21:49:09.442Z,43.50
2018-10-17T21:51:36.279Z,43.60
2018-10-17T21:54:03.113Z,43.50
2018-10-17T21:56:29.943Z,43.50
2018-10-17T21:58:56.774Z,43.50
2018-10-17T22:01:23.596Z,43.50
2018-10-17T22:03:50.430Z,43.50
2018-10-17T22:06:17.345Z,43.40
2018-10-17T22:08:44.172Z,43.30
2018-10-17T22:11:10.995Z,43.20
2018-10-17T22:13:37.824Z,43.30
2018-10-17T22:16:04.749Z,43.30
2018-10-17T22:18:31.766Z,43.30
2018-10-17T22:20:58.589Z,43.20
2018-10-17T22:23:25.430Z,43.20
2018-10-17T22:25:52.301Z,43.20
2018-10-17T22:28:19.128Z,43.20
2018-10-17T22:30:45.940Z,43.20
2018-10-17T22:33:12.772Z,43.30
2018-10-17T22:35:39.660Z,43.30
2018-10-17T22:38:06.568Z,44.00
2018-10-17T22:40:33.327Z,43.30
2018-10-17T22:43:00.630Z,43.30
2018-10-17T22:45:27.451Z,43.20
2018-10-17T22:47:54.485Z,43.30
2018-10-17T22:50:21.318Z,43.30
2018-10-17T22:52:48.423Z,43.30
2018-10-17T22:55:15.274Z,43.30
2018-10-17T22:57:42.249Z,43.30
2018-10-17T23:00:09.080Z,43.30
2018-10-17T23:02:35.964Z,43.30
2018-10-17T23:05:02.793Z,43.40
2018-10-17T23:07:29.642Z,43.30
2018-10-17T23:09:56.471Z,43.20
2018-10-17T23:12:23.314Z,43.30
2018-10-17T23:14:50.197Z,43.30
2018-10-17T23:17:17.203Z,43.20
2018-10-17T23:19:44.043Z,43.30
2018-10-17T23:22:10.899Z,43.20
2018-10-17T23:24:38.080Z,43.20
2018-10-17T23:27:04.993Z,43.20
2018-10-17T23:29:31.825Z,43.20
2018-10-17T23:31:58.678Z,43.80
2018-10-17T23:34:25.506Z,43.20
2018-10-17T23:36:52.359Z,43.20
2018-10-17T23:39:19.186Z,43.20
2018-10-17T23:41:46.157Z,43.20
2018-10-17T23:44:13.031Z,43.20
2018-10-17T23:46:39.770Z,43.20
2018-10-17T23:49:06.609Z,43.20
2018-10-17T23:51:33.432Z,43.20
2018-10-17T23:54:00.502Z,43.20
2018-10-17T23:56:27.311Z,43.20
2018-10-17T23:58:54.166Z,43.20
